Time;durP1;ratioP1;P1;durP2;ratioP2;P2;SDS_P1;SDS_P2;PMS_P1;PMS_P2;Temp;Humidity;BMP_temperature;BMP_pressure;BME280_temperature;BME280_humidity;BME280_pressure;Samples;Min_cycle;Max_cycle;Signal;HPM_P1;HPM_P2
2020/12/04 00:02:31;;;;;;;52.90;25.68;;;;;;;2.85;65.71;97963.55;251938;1133;114526;-62
2020/12/04 00:07:34;;;;;;;52.67;25.35;;;;;;;2.99;65.75;97969.02;251960;1132;115210;-63
2020/12/04 00:12:37;;;;;;;50.98;24.95;;;;;;;3.12;65.79;97971.03;251894;1133;114304;-62
2020/12/04 00:17:40;;;;;;;43.28;23.02;;;;;;;3.18;66.01;97981.25;252053;1132;114794;-63
2020/12/04 00:22:42;;;;;;;46.92;22.87;;;;;;;3.25;65.51;97974.76;251927;1133;114943;-63
2020/12/04 00:27:45;;;;;;;43.02;20.72;;;;;;;3.27;65.63;97968.50;252061;1132;114911;-64
2020/12/04 00:32:47;;;;;;;39.30;21.23;;;;;;;3.31;65.35;97956.05;252063;1131;114733;-63
2020/12/04 00:37:50;;;;;;;40.98;21.77;;;;;;;3.32;65.20;97952.48;251942;1132;114167;-63
2020/12/04 00:42:52;;;;;;;44.75;22.22;;;;;;;3.28;65.45;97957.05;251886;1133;114599;-66
2020/12/04 00:47:55;;;;;;;46.50;23.57;;;;;;;3.25;65.31;97956.35;251982;1134;114520;-62
2020/12/04 00:52:58;;;;;;;46.90;22.93;;;;;;;3.18;65.32;97934.78;251911;1132;114570;-62
2020/12/04 00:58:01;;;;;;;40.08;21.70;;;;;;;3.16;65.25;97918.25;252050;1133;115618;-63
2020/12/04 01:03:04;;;;;;;38.88;20.30;;;;;;;3.17;65.49;97922.57;252126;1135;114735;-63
2020/12/04 01:08:06;;;;;;;36.05;19.27;;;;;;;3.27;65.91;97917.70;252062;1135;114161;-63
2020/12/04 01:13:08;;;;;;;36.00;19.62;;;;;;;3.36;65.63;97911.95;251953;1133;115602;-62
2020/12/04 01:18:12;;;;;;;38.58;19.75;;;;;;;3.45;65.84;97922.02;251968;1132;114299;-62
2020/12/04 01:23:14;;;;;;;35.38;19.23;;;;;;;3.50;65.32;97913.91;252048;1131;114664;-64
2020/12/04 01:28:16;;;;;;;34.27;17.70;;;;;;;3.49;65.30;97907.77;251999;1133;114777;-64
2020/12/04 01:33:20;;;;;;;35.38;18.23;;;;;;;3.47;65.43;97888.61;252042;1132;114758;-63
2020/12/04 01:38:22;;;;;;;34.67;17.80;;;;;;;3.45;65.17;97885.20;249391;1132;114917;-68
2020/12/04 01:43:25;;;;;;;30.70;17.98;;;;;;;3.40;65.43;97881.13;252026;1135;114465;-66
2020/12/04 01:48:28;;;;;;;33.23;17.60;;;;;;;3.32;65.47;97892.86;251988;1135;173620;-67
2020/12/04 01:53:30;;;;;;;32.70;16.40;;;;;;;3.33;65.71;97885.84;252024;1135;114620;-66
2020/12/04 01:58:33;;;;;;;29.70;15.43;;;;;;;3.35;65.48;97876.08;251079;1140;114948;-66
2020/12/04 02:03:46;;;;;;;28.17;15.10;;;;;;;3.37;65.57;97865.50;252060;1133;115137;-66
2020/12/04 02:09:10;;;;;;;25.10;13.83;;;;;;;3.39;65.88;97853.11;251934;1131;114538;-70
2020/12/04 02:14:18;;;;;;;25.88;14.28;;;;;;;3.43;65.92;97854.64;252096;1132;114688;-67
2020/12/04 02:19:59;;;;;;;28.20;14.80;;;;;;;3.45;65.80;97845.75;251994;1132;114837;-68
2020/12/04 02:25:26;;;;;;;25.25;13.95;;;;;;;3.44;65.23;97836.17;252018;1132;115130;-68
2020/12/04 02:31:11;;;;;;;29.17;15.40;;;;;;;3.44;65.32;97844.06;251938;1132;114839;-69
2020/12/04 02:36:28;;;;;;;25.87;13.63;;;;;;;3.41;65.68;97833.70;251818;1132;114849;-69
2020/12/04 02:41:43;;;;;;;27.25;14.23;;;;;;;3.39;65.55;97827.66;252121;1132;114782;-70
2020/12/04 02:47:18;;;;;;;25.87;13.70;;;;;;;3.46;65.99;97826.40;251815;1132;115032;-70
2020/12/04 02:52:28;;;;;;;24.98;14.25;;;;;;;3.51;65.28;97805.98;252153;1131;114934;-70
2020/12/04 02:57:46;;;;;;;26.53;13.33;;;;;;;3.57;65.46;97799.55;252076;1132;114799;-69
2020/12/04 03:02:48;;;;;;;26.53;14.60;;;;;;;3.59;65.41;97800.30;251924;1134;115150;-69
2020/12/04 03:07:51;;;;;;;25.45;14.33;;;;;;;3.59;65.29;97804.72;251982;1132;114367;-65
2020/12/04 03:12:53;;;;;;;27.43;13.80;;;;;;;3.56;65.42;97801.31;252105;1133;115195;-66
2020/12/04 03:17:56;;;;;;;27.67;14.13;;;;;;;3.51;65.17;97789.36;251127;1139;115453;-70
2020/12/04 03:22:58;;;;;;;23.60;13.00;;;;;;;3.46;65.08;97792.20;250761;1132;114705;-65
2020/12/04 03:28:01;;;;;;;23.20;13.15;;;;;;;3.41;65.07;97796.88;251963;1133;114756;-67
2020/12/04 03:33:03;;;;;;;23.20;13.00;;;;;;;3.38;65.40;97794.41;251979;1134;114864;-65
2020/12/04 03:38:06;;;;;;;23.10;13.00;;;;;;;3.34;65.03;97792.88;252231;1137;118415;-65
2020/12/04 03:43:08;;;;;;;17.92;10.78;;;;;;;3.37;65.57;97786.62;251942;1133;114697;-64
2020/12/04 03:48:10;;;;;;;17.90;10.23;;;;;;;3.42;65.51;97780.16;252101;1133;114326;-64
2020/12/04 03:53:12;;;;;;;19.33;10.73;;;;;;;3.47;65.71;97779.94;250608;1132;114750;-67
2020/12/04 03:58:16;;;;;;;19.82;10.43;;;;;;;3.48;65.75;97787.73;252066;1132;114644;-67
2020/12/04 04:03:18;;;;;;;15.87;10.13;;;;;;;3.48;65.58;97774.58;252137;1132;114820;-69
2020/12/04 04:08:21;;;;;;;17.63;10.17;;;;;;;3.48;65.66;97773.73;248373;1132;115173;-68
2020/12/04 04:13:24;;;;;;;19.80;10.63;;;;;;;3.52;65.75;97765.59;252153;1133;114599;-64
2020/12/04 04:18:26;;;;;;;14.47;9.03;;;;;;;3.63;66.06;97772.89;252024;1134;114783;-65
2020/12/04 04:23:29;;;;;;;14.95;9.20;;;;;;;3.78;66.07;97774.70;252033;1135;115092;-64
2020/12/04 04:28:32;;;;;;;15.50;9.80;;;;;;;3.88;65.84;97774.20;251950;1133;115258;-63
2020/12/04 04:33:34;;;;;;;16.20;9.83;;;;;;;3.97;65.51;97744.72;251973;1135;114251;-64
2020/12/04 04:38:38;;;;;;;16.67;9.17;;;;;;;4.03;65.99;97770.70;252010;1132;114697;-64
2020/12/04 04:43:40;;;;;;;15.83;9.20;;;;;;;4.04;65.88;97777.66;251995;1135;114844;-64
2020/12/04 04:48:55;;;;;;;16.15;9.40;;;;;;;4.05;66.49;97774.11;251994;1132;114690;-64
2020/12/04 04:53:58;;;;;;;15.17;9.17;;;;;;;4.08;66.54;97780.99;251985;1135;114530;-65
2020/12/04 04:59:01;;;;;;;16.17;9.45;;;;;;;4.12;66.42;97777.25;252042;1135;114576;-66
2020/12/04 05:04:03;;;;;;;13.93;8.83;;;;;;;4.17;65.99;97781.30;252044;1133;114388;-65
2020/12/04 05:09:09;;;;;;;14.73;9.05;;;;;;;4.21;66.16;97780.22;251951;1131;114526;-66
2020/12/04 05:14:24;;;;;;;15.23;9.05;;;;;;;4.23;66.21;97782.75;252015;1133;114630;-65
2020/12/04 05:19:32;;;;;;;13.57;8.00;;;;;;;4.22;65.54;97752.94;252004;1135;114511;-65
2020/12/04 05:24:35;;;;;;;13.10;8.33;;;;;;;4.26;65.91;97750.98;252097;1134;114502;-66
2020/12/04 05:29:38;;;;;;;13.63;8.63;;;;;;;4.29;65.69;97760.49;251891;1132;114578;-65
2020/12/04 05:34:41;;;;;;;14.37;9.00;;;;;;;4.36;66.58;97775.84;252042;1134;114714;-63
2020/12/04 05:39:48;;;;;;;15.63;9.23;;;;;;;4.44;65.79;97776.24;252079;1135;114803;-63
2020/12/04 05:44:54;;;;;;;18.67;13.53;;;;;;;4.51;66.29;97780.22;252037;1135;114879;-63
2020/12/04 05:49:57;;;;;;;18.20;9.80;;;;;;;4.57;66.25;97752.68;252014;1134;114573;-63
2020/12/04 05:55:01;;;;;;;15.97;9.37;;;;;;;4.57;65.95;97763.22;252027;1134;114542;-65
2020/12/04 06:00:05;;;;;;;12.98;8.30;;;;;;;4.60;65.92;97760.41;252112;1133;115053;-65
2020/12/04 06:05:14;;;;;;;14.25;8.50;;;;;;;4.60;66.30;97764.83;252011;1132;114578;-63
2020/12/04 06:10:16;;;;;;;13.90;8.37;;;;;;;4.61;66.22;97771.79;251987;1132;114585;-64
2020/12/04 06:15:20;;;;;;;14.40;8.20;;;;;;;4.58;65.66;97766.70;251916;1132;115127;-64
2020/12/04 06:20:23;;;;;;;14.77;9.03;;;;;;;4.60;66.23;97764.83;252034;1133;114616;-65
2020/12/04 06:25:26;;;;;;;15.40;8.60;;;;;;;4.56;65.11;97753.63;251964;1137;114475;-65
2020/12/04 06:30:43;;;;;;;19.17;9.35;;;;;;;4.53;65.69;97768.77;252081;1132;114707;-63
2020/12/04 06:35:45;;;;;;;14.87;8.93;;;;;;;4.47;65.18;97776.07;252078;1134;114847;-63
2020/12/04 06:40:50;;;;;;;12.98;8.38;;;;;;;4.46;65.35;97774.38;252069;1132;114606;-69
2020/12/04 06:46:30;;;;;;;15.20;9.40;;;;;;;4.53;65.85;97803.86;249948;1132;114599;-69
2020/12/04 06:51:33;;;;;;;14.33;9.63;;;;;;;4.63;65.90;97794.48;251971;1132;114595;-68
2020/12/04 06:56:35;;;;;;;16.10;9.63;;;;;;;4.72;65.94;97793.08;252069;1132;114872;-69
2020/12/04 07:01:39;;;;;;;17.63;10.33;;;;;;;4.84;65.38;97804.70;251893;1134;114364;-68
2020/12/04 07:06:46;;;;;;;16.97;10.37;;;;;;;4.92;66.17;97803.30;249181;1132;114726;-69
2020/12/04 07:11:49;;;;;;;17.03;10.37;;;;;;;4.97;65.74;97824.98;251872;1134;115742;-71
2020/12/04 07:16:57;;;;;;;16.30;10.32;;;;;;;5.04;65.47;97845.72;252058;1132;114563;-67
2020/12/04 07:21:59;;;;;;;21.35;10.68;;;;;;;5.12;65.64;97843.47;251982;1135;114853;-69
2020/12/04 07:27:14;;;;;;;17.00;10.53;;;;;;;5.19;65.44;97834.25;250738;1132;115193;-72
2020/12/04 07:32:25;;;;;;;17.83;10.13;;;;;;;5.26;65.49;97835.58;251218;1134;114745;-73
2020/12/04 07:37:46;;;;;;;;;;;;;;;;;;;;;
2020/12/04 07:42:54;;;;;;;19.17;11.85;;;;;;;5.42;65.38;97822.32;251633;1133;114673;-70
2020/12/04 07:48:06;;;;;;;21.40;12.23;;;;;;;5.50;65.51;97838.52;252072;1132;114612;-68
2020/12/04 07:53:09;;;;;;;21.13;12.03;;;;;;;5.57;65.56;97839.00;251995;1134;114688;-68
2020/12/04 07:58:22;;;;;;;20.03;11.37;;;;;;;5.65;65.45;97845.52;252117;1134;114849;-68
2020/12/04 08:03:24;;;;;;;24.27;12.07;;;;;;;5.71;65.30;97846.94;251722;1135;114863;-70
2020/12/04 08:08:26;;;;;;;22.45;11.30;;;;;;;5.78;65.08;97842.98;252009;1131;114719;-69
2020/12/04 08:13:35;;;;;;;21.13;10.97;;;;;;;5.90;65.47;97839.55;252220;1132;114872;-73
2020/12/04 08:18:45;;;;;;;21.70;12.70;;;;;;;6.05;65.31;97831.67;252038;1133;114884;-74
2020/12/04 08:24:04;;;;;;;20.90;12.10;;;;;;;6.14;65.98;97844.28;252073;1131;114988;-73
2020/12/04 08:29:12;;;;;;;19.00;12.33;;;;;;;6.24;65.18;97848.03;251997;1134;114591;-73
2020/12/04 08:34:33;;;;;;;;;;;;;;;;;;;;;
2020/12/04 08:39:44;;;;;;;18.73;11.30;;;;;;;6.39;65.49;97831.21;249598;1134;114543;-71
2020/12/04 08:44:54;;;;;;;19.77;12.78;;;;;;;6.43;65.84;97831.02;252046;1134;117301;-69
2020/12/04 08:50:05;;;;;;;23.80;12.50;;;;;;;6.43;65.23;97829.22;252079;1132;114539;-69
2020/12/04 08:55:42;;;;;;;27.57;13.30;;;;;;;6.45;65.16;97832.59;252036;1132;114763;-71
2020/12/04 09:00:56;;;;;;;21.70;12.90;;;;;;;6.48;64.74;97840.32;251582;1132;115196;-74
2020/12/04 09:06:34;;;;;;;;;;;;;;;;;;;;;
2020/12/04 09:18:33;;;;;;;18.57;11.27;;;;;;;6.62;65.57;97818.28;251247;1135;115835;-71
2020/12/04 09:23:56;;;;;;;23.27;11.27;;;;;;;6.72;65.11;97821.17;251409;1132;114794;-73
2020/12/04 09:29:19;;;;;;;18.30;11.50;;;;;;;6.86;65.89;97814.03;251700;1135;115216;-66
2020/12/04 09:34:21;;;;;;;16.90;11.10;;;;;;;7.05;65.84;97807.50;251917;1137;115630;-69
2020/12/04 09:39:23;;;;;;;16.77;11.07;;;;;;;7.25;65.97;97819.38;252038;1133;114612;-68
2020/12/04 09:44:28;;;;;;;16.27;10.85;;;;;;;7.47;65.64;97816.09;252126;1133;114805;-69
2020/12/04 09:49:39;;;;;;;17.13;11.33;;;;;;;7.65;66.33;97798.95;249959;1132;115156;-67
2020/12/04 09:54:59;;;;;;;;;;;;;;;;;;;;;
2020/12/04 10:00:20;;;;;;;18.15;10.95;;;;;;;7.93;65.20;97791.69;250932;1132;114675;-68
2020/12/04 10:05:46;;;;;;;17.67;10.80;;;;;;;8.05;65.61;97782.87;251427;1132;114521;-67
2020/12/04 10:11:13;;;;;;;;;;;;;;;;;;;;;
2020/12/04 10:16:24;;;;;;;21.53;12.37;;;;;;;8.40;65.85;97769.73;252250;1132;114686;-68
2020/12/04 10:22:10;;;;;;;24.07;12.03;;;;;;;8.55;65.46;97759.79;251919;1132;114682;-68
2020/12/04 10:27:39;;;;;;;20.12;11.08;;;;;;;8.61;64.96;97763.80;251610;1134;114399;-68
2020/12/04 10:33:05;;;;;;;16.75;10.40;;;;;;;8.65;64.72;97757.30;251498;1135;115071;-67
2020/12/04 10:38:10;;;;;;;16.00;10.00;;;;;;;8.82;64.98;97729.51;251872;1132;114617;-68
2020/12/04 10:43:25;;;;;;;19.00;10.57;;;;;;;8.87;64.67;97738.81;252101;1132;114880;-68
2020/12/04 10:48:36;;;;;;;14.13;10.43;;;;;;;8.97;64.91;97744.27;252089;1134;114272;-65
2020/12/04 10:53:41;;;;;;;19.75;11.57;;;;;;;9.04;64.84;97740.19;251967;1132;115649;-67
2020/12/04 10:58:45;;;;;;;23.27;10.23;;;;;;;9.09;64.31;97732.70;252060;1133;115698;-69
2020/12/04 11:09:35;;;;;;;14.43;8.80;;;;;;;9.15;64.29;97731.39;250605;1133;114683;-69
2020/12/04 11:15:30;;;;;;;17.05;9.80;;;;;;;9.22;63.51;97708.72;251449;1134;114897;-69
2020/12/04 11:20:44;;;;;;;13.55;8.38;;;;;;;9.30;63.59;97724.04;251230;1135;115129;-71
2020/12/04 11:25:58;;;;;;;14.73;9.35;;;;;;;9.36;63.86;97715.60;251463;1135;114876;-71
2020/12/04 11:31:32;;;;;;;19.03;9.60;;;;;;;9.43;63.80;97714.99;251935;1133;114959;-71
2020/12/04 11:36:59;;;;;;;17.07;8.17;;;;;;;9.49;63.22;97676.50;252171;1133;114518;-73
2020/12/04 11:42:11;;;;;;;14.37;8.80;;;;;;;9.53;62.92;97661.16;252087;1132;114797;-72
2020/12/04 11:47:53;;;;;;;;;;;;;;;;;;;;;
2020/12/04 11:53:08;;;;;;;15.40;8.43;;;;;;;9.54;62.90;97692.89;251827;1133;114805;-71
2020/12/04 11:58:22;;;;;;;;;;;;;;;;;;;;;
2020/12/04 12:03:30;;;;;;;14.90;9.03;;;;;;;9.53;62.62;97650.54;251663;1133;114666;-70
2020/12/04 12:09:09;;;;;;;19.53;10.10;;;;;;;9.49;62.43;97655.25;251889;1134;114883;-70
2020/12/04 12:15:02;;;;;;;23.22;9.40;;;;;;;9.55;62.50;97649.45;251214;1135;115134;-72
2020/12/04 12:20:18;;;;;;;17.43;9.53;;;;;;;9.60;62.55;97638.45;251383;1135;114861;-71
2020/12/04 12:25:32;;;;;;;20.67;9.30;;;;;;;9.59;61.98;97619.02;251418;1137;115516;-71
2020/12/04 12:30:44;;;;;;;18.47;10.00;;;;;;;9.67;62.38;97651.11;251301;1134;114996;-72
2020/12/04 12:36:00;;;;;;;17.43;10.20;;;;;;;9.80;62.24;97668.72;250762;1135;114969;-71
2020/12/04 12:41:02;;;;;;;15.95;9.65;;;;;;;10.01;62.02;97676.76;251212;1135;115494;-68
2020/12/04 12:46:10;;;;;;;17.87;8.90;;;;;;;10.17;61.81;97667.41;251070;1135;115605;-71
2020/12/04 12:51:27;;;;;;;16.20;9.27;;;;;;;10.30;61.48;97671.75;251175;1134;114799;-70
2020/12/04 12:56:40;;;;;;;15.60;8.53;;;;;;;10.31;61.35;97658.31;251716;1132;115766;-69
2020/12/04 13:02:24;;;;;;;21.87;8.60;;;;;;;10.34;61.11;97662.55;251888;1132;114879;-74
2020/12/04 13:07:34;;;;;;;20.97;8.40;;;;;;;10.36;60.99;97681.86;251701;1135;115673;-75
2020/12/04 13:12:45;;;;;;;21.67;8.63;;;;;;;10.39;60.50;97694.90;252032;1133;114936;-75
2020/12/04 13:18:00;;;;;;;;;;;;;;;10.43;60.77;97693.70;251867;1132;115383;-72
2020/12/04 13:23:30;;;;;;;14.25;7.95;;;;;;;10.47;61.00;97700.45;251192;1134;102708;-72
2020/12/04 13:29:00;;;;;;;;;;;;;;;;;;;;;
2020/12/04 13:34:03;;;;;;;13.25;8.05;;;;;;;10.57;60.40;97717.33;251779;1134;115255;-72
2020/12/04 13:39:28;;;;;;;10.40;7.05;;;;;;;10.60;60.92;97706.44;251936;1133;115279;-73
2020/12/04 13:44:39;;;;;;;17.77;7.53;;;;;;;10.62;60.52;97719.59;251936;1134;115053;-70
2020/12/04 13:49:48;;;;;;;14.47;8.60;;;;;;;10.61;59.79;97707.27;252018;1132;114941;-71
2020/12/04 13:54:56;;;;;;;12.07;6.87;;;;;;;10.55;60.54;97719.27;251917;1132;114890;-70
2020/12/04 14:00:07;;;;;;;13.98;7.92;;;;;;;10.52;60.22;97727.48;251928;1131;115723;-70
2020/12/04 14:05:10;;;;;;;12.53;8.03;;;;;;;10.45;59.68;97720.99;252020;1133;114702;-71
2020/12/04 14:10:27;;;;;;;;;;;;;;;;;;;;;
2020/12/04 14:15:52;;;;;;;14.98;8.75;;;;;;;10.23;60.11;97731.70;250676;1132;114959;-71
2020/12/04 14:21:01;;;;;;;19.67;9.60;;;;;;;10.11;60.04;97730.86;251993;1132;114995;-72
2020/12/04 14:26:08;;;;;;;14.15;9.18;;;;;;;10.00;59.70;97734.39;252006;1134;115073;-72
2020/12/04 14:31:28;;;;;;;18.33;10.33;;;;;;;9.90;59.71;97728.13;251925;1132;115171;-73
2020/12/04 14:36:46;;;;;;;13.25;8.33;;;;;;;9.79;60.21;97746.75;251728;1132;114615;-73
2020/12/04 14:41:56;;;;;;;16.47;8.43;;;;;;;9.64;59.93;97756.76;251642;1134;114468;-72
2020/12/04 14:47:11;;;;;;;16.63;9.43;;;;;;;9.60;60.28;97755.31;251968;1131;114792;-72
2020/12/04 14:52:26;;;;;;;18.05;9.40;;;;;;;9.60;60.78;97764.12;252145;1132;114820;-73
2020/12/04 14:57:30;;;;;;;16.63;9.43;;;;;;;9.55;60.13;97758.34;252072;1132;114516;-73
2020/12/04 15:02:41;;;;;;;17.90;9.93;;;;;;;9.46;60.20;97754.59;251844;1134;114644;-73
2020/12/04 15:08:20;;;;;;;;;;;;;;;;;;;;;
2020/12/04 15:13:46;;;;;;;18.33;10.00;;;;;;;9.18;60.03;97757.70;250226;1132;115495;-70
2020/12/04 15:18:56;;;;;;;18.45;9.80;;;;;;;9.03;60.67;97780.09;251901;1134;115509;-70
2020/12/04 15:24:10;;;;;;;16.87;9.87;;;;;;;8.94;60.10;97793.11;248006;1134;115140;-71
2020/12/04 15:29:13;;;;;;;18.13;10.23;;;;;;;8.84;60.55;97804.53;251955;1135;115350;-70
2020/12/04 15:34:22;;;;;;;19.13;10.50;;;;;;;8.74;60.44;97817.62;250075;1134;1827530;-71
2020/12/04 15:39:33;;;;;;;18.53;10.77;;;;;;;8.70;60.79;97826.78;251624;1133;115029;-70
2020/12/04 15:44:41;;;;;;;20.17;10.75;;;;;;;8.64;60.68;97817.45;251774;1132;114918;-70
2020/12/04 15:49:44;;;;;;;23.23;11.30;;;;;;;8.57;60.68;97816.22;251942;1133;114662;-70
2020/12/04 15:54:46;;;;;;;21.17;11.20;;;;;;;8.50;60.74;97821.13;251540;1134;114823;-69
2020/12/04 15:59:49;;;;;;;23.90;12.03;;;;;;;8.46;60.86;97837.37;251895;1134;114408;-69
2020/12/04 16:04:52;;;;;;;30.03;12.90;;;;;;;8.36;60.45;97837.16;251779;1133;114417;-69
2020/12/04 16:09:54;;;;;;;31.85;14.47;;;;;;;8.35;60.50;97843.40;251796;1132;114436;-69
2020/12/04 16:14:56;;;;;;;28.17;15.07;;;;;;;8.34;61.03;97849.67;251724;1135;114807;-69
2020/12/04 16:19:59;;;;;;;24.97;13.23;;;;;;;8.27;60.47;97851.91;251782;1134;114804;-69
2020/12/04 16:25:06;;;;;;;26.50;13.03;;;;;;;8.19;60.31;97845.48;251753;1132;114920;-68
2020/12/04 16:30:09;;;;;;;21.33;13.73;;;;;;;8.12;60.85;97866.27;250594;1134;115285;-69
2020/12/04 16:35:12;;;;;;;23.52;13.38;;;;;;;7.98;60.38;97863.72;251926;1134;114896;-67
2020/12/04 16:40:16;;;;;;;21.73;12.73;;;;;;;7.85;60.84;97854.97;251829;1132;114802;-70
2020/12/04 16:45:19;;;;;;;;;;;;;;;7.72;60.64;97854.97;252015;1135;115210;-68
2020/12/04 16:50:22;;;;;;;21.83;12.67;;;;;;;7.59;60.79;97868.20;251972;1132;102647;-69
2020/12/04 16:55:24;;;;;;;22.37;13.50;;;;;;;7.50;61.09;97871.47;251734;1135;114623;-68
2020/12/04 17:00:29;;;;;;;23.90;14.15;;;;;;;7.42;60.59;97890.53;251838;1132;115308;-69
2020/12/04 17:05:51;;;;;;;21.73;13.60;;;;;;;7.33;60.54;97896.44;251525;1134;115519;-69
2020/12/04 17:10:55;;;;;;;23.00;12.87;;;;;;;7.21;61.34;97903.41;250082;1132;114667;-68
2020/12/04 17:16:04;;;;;;;22.90;14.23;;;;;;;7.17;61.07;97908.98;251886;1135;114638;-70
2020/12/04 17:21:29;;;;;;;22.00;13.23;;;;;;;7.09;61.16;97902.41;251548;1132;114448;-69
2020/12/04 17:26:33;;;;;;;22.80;14.38;;;;;;;7.03;61.29;97909.90;251560;1133;114866;-69
2020/12/04 17:31:35;;;;;;;22.70;13.93;;;;;;;7.04;61.23;97914.27;251780;1141;114603;-69
2020/12/04 17:36:37;;;;;;;24.02;14.85;;;;;;;7.06;61.64;97914.99;252141;1141;115030;-69
2020/12/04 17:41:49;;;;;;;29.47;15.23;;;;;;;7.04;62.07;97911.63;252042;1135;115023;-69
2020/12/04 17:47:02;;;;;;;;;;;;;;;;;;;;;
2020/12/04 17:52:10;;;;;;;32.23;17.95;;;;;;;7.03;61.40;97925.77;251735;1133;114572;-70
2020/12/04 17:57:21;;;;;;;32.53;16.97;;;;;;;6.96;61.07;97929.77;251349;1132;115851;-70
2020/12/04 18:02:41;;;;;;;30.47;17.13;;;;;;;6.85;61.37;97926.03;251675;1110;115037;-65
2020/12/04 18:07:43;;;;;;;32.20;18.07;;;;;;;6.71;61.99;97947.22;250540;1134;114698;-68
2020/12/04 18:12:47;;;;;;;37.93;21.70;;;;;;;6.60;61.75;97941.78;251591;1134;114467;-66
2020/12/04 18:17:53;;;;;;;34.58;20.80;;;;;;;6.51;62.45;97923.86;251796;1133;114850;-66
2020/12/04 18:22:55;;;;;;;35.10;19.60;;;;;;;6.43;62.41;97931.44;251887;1134;114374;-66
2020/12/04 18:27:58;;;;;;;32.40;19.33;;;;;;;6.36;62.44;97928.33;251043;1134;115027;-66
2020/12/04 18:33:01;;;;;;;33.30;18.43;;;;;;;6.35;62.50;97945.11;251527;1135;114523;-66
2020/12/04 18:38:05;;;;;;;32.00;16.73;;;;;;;6.34;62.90;97949.55;251780;1135;115934;-67
2020/12/04 18:43:08;;;;;;;23.80;14.58;;;;;;;6.43;62.47;97956.06;251983;1133;114866;-65
2020/12/04 18:48:10;;;;;;;23.90;13.50;;;;;;;6.55;63.38;97954.42;251858;1133;114869;-65
2020/12/04 18:53:13;;;;;;;21.40;12.63;;;;;;;6.70;62.74;97945.54;251816;1133;115137;-65
2020/12/04 18:58:16;;;;;;;21.07;12.73;;;;;;;6.90;63.23;97946.06;251783;1135;115529;-66
2020/12/04 19:03:19;;;;;;;20.70;13.05;;;;;;;7.08;63.60;97935.11;251812;1135;115483;-66
2020/12/04 19:08:21;;;;;;;21.37;12.30;;;;;;;7.22;63.28;97931.56;251816;1135;115281;-66
2020/12/04 19:13:24;;;;;;;19.67;11.70;;;;;;;7.38;63.37;97930.55;251666;1134;115039;-65
2020/12/04 19:18:27;;;;;;;20.03;12.57;;;;;;;7.49;63.27;97933.31;251828;1134;115178;-65
2020/12/04 19:23:30;;;;;;;22.37;12.57;;;;;;;7.57;62.76;97938.93;251579;1135;114715;-65
2020/12/04 19:28:34;;;;;;;23.67;13.43;;;;;;;7.62;62.96;97944.78;251618;1135;115035;-66
2020/12/04 19:33:38;;;;;;;22.82;12.90;;;;;;;7.64;62.54;97947.31;251423;1135;115070;-66
2020/12/04 19:38:40;;;;;;;25.53;14.37;;;;;;;7.62;62.97;97938.64;251720;1134;117263;-65
2020/12/04 19:43:42;;;;;;;27.05;14.75;;;;;;;7.61;62.48;97932.50;251979;1135;114912;-65
2020/12/04 19:48:45;;;;;;;28.30;15.93;;;;;;;7.58;62.89;97944.14;251678;1137;114879;-66
2020/12/04 19:53:47;;;;;;;27.63;15.33;;;;;;;7.51;62.04;97952.61;249893;1135;114605;-66
2020/12/04 19:58:49;;;;;;;26.47;14.33;;;;;;;7.38;62.98;97951.72;251731;1135;114915;-66
2020/12/04 20:03:52;;;;;;;25.33;14.33;;;;;;;7.28;63.17;97965.55;251719;1135;115052;-66
2020/12/04 20:08:55;;;;;;;27.10;15.20;;;;;;;7.25;63.01;97973.70;251815;1135;114954;-66
2020/12/04 20:13:57;;;;;;;27.20;15.47;;;;;;;7.23;63.38;97986.16;251980;1135;114782;-66
2020/12/04 20:19:00;;;;;;;25.40;14.78;;;;;;;7.17;62.88;97983.07;251792;1140;114383;-66
2020/12/04 20:24:02;;;;;;;27.62;15.83;;;;;;;7.08;62.56;97988.02;251855;1136;114638;-66
2020/12/04 20:29:06;;;;;;;32.65;16.85;;;;;;;7.06;62.94;97967.90;251902;1135;114977;-66
2020/12/04 20:34:09;;;;;;;38.08;18.92;;;;;;;7.10;63.51;97995.87;251705;1135;115366;-66
2020/12/04 20:39:12;;;;;;;36.70;19.30;;;;;;;7.18;63.17;97984.79;250215;1134;114784;-65
2020/12/04 20:44:15;;;;;;;36.30;19.02;;;;;;;7.26;63.35;97991.26;251874;1136;115286;-66
2020/12/04 20:49:18;;;;;;;32.28;17.48;;;;;;;7.31;63.56;97991.82;251738;1135;114820;-66
2020/12/04 20:54:21;;;;;;;36.03;18.40;;;;;;;7.32;63.12;97980.28;251713;1141;116112;-66
2020/12/04 20:59:23;;;;;;;35.92;19.52;;;;;;;7.36;63.57;97986.22;251762;1134;115108;-66
2020/12/04 21:04:26;;;;;;;35.20;18.53;;;;;;;7.40;62.89;98008.03;251623;1135;114954;-66
2020/12/04 21:09:32;;;;;;;36.03;18.93;;;;;;;7.40;63.13;98006.23;251847;1135;114809;-66
2020/12/04 21:14:38;;;;;;;40.57;19.93;;;;;;;7.36;63.09;98020.63;249954;1135;114638;-67
2020/12/04 21:19:44;;;;;;;38.67;20.33;;;;;;;7.31;63.64;98007.70;251642;1134;114883;-67
2020/12/04 21:24:49;;;;;;;36.80;19.57;;;;;;;7.28;62.81;98004.41;251855;1135;116222;-67
2020/12/04 21:30:04;;;;;;;34.17;18.87;;;;;;;7.27;63.85;98014.15;251227;1133;115110;-66
2020/12/04 21:35:08;;;;;;;35.50;18.42;;;;;;;7.24;64.01;98014.34;251693;1134;115233;-66
2020/12/04 21:40:13;;;;;;;;;;;;;;;7.18;62.86;98027.97;251624;1134;115247;-66
2020/12/04 21:45:16;;;;;;;32.33;17.27;;;;;;;7.13;63.12;98023.91;251738;1135;102039;-66
2020/12/04 21:50:22;;;;;;;30.20;17.17;;;;;;;7.03;63.11;98023.64;251703;1135;114976;-66
2020/12/04 21:55:31;;;;;;;30.07;18.03;;;;;;;6.97;62.67;98026.70;251723;1135;114829;-66
2020/12/04 22:00:33;;;;;;;32.50;17.70;;;;;;;6.94;63.03;98016.32;251541;1135;115499;-66
2020/12/04 22:05:36;;;;;;;35.92;17.80;;;;;;;6.93;62.67;98009.31;251579;1135;115590;-66
2020/12/04 22:10:41;;;;;;;34.60;18.50;;;;;;;6.96;63.25;98022.34;251821;1135;115124;-66
2020/12/04 22:15:46;;;;;;;32.73;18.02;;;;;;;6.93;63.22;98036.63;251699;1134;115716;-66
2020/12/04 22:20:52;;;;;;;34.63;18.90;;;;;;;6.92;63.62;98032.27;251755;1136;115048;-66
2020/12/04 22:25:54;;;;;;;37.00;18.67;;;;;;;6.98;63.36;98042.47;251775;1134;116312;-67
2020/12/04 22:30:57;;;;;;;32.88;17.02;;;;;;;7.00;63.83;98037.94;250343;1136;114801;-65
2020/12/04 22:35:59;;;;;;;31.13;17.67;;;;;;;7.03;64.13;98042.16;249289;1134;115875;-66
2020/12/04 22:41:03;;;;;;;33.23;19.00;;;;;;;7.01;64.44;98046.72;250411;1135;115056;-66
2020/12/04 22:46:06;;;;;;;28.17;17.17;;;;;;;6.98;64.07;98028.39;251514;1135;115259;-66
2020/12/04 22:51:14;;;;;;;34.53;18.73;;;;;;;6.88;63.55;98038.70;251468;1136;114408;-66
2020/12/04 22:56:17;;;;;;;29.77;18.13;;;;;;;6.82;64.62;98037.28;251560;1135;115081;-66
2020/12/04 23:01:26;;;;;;;36.23;18.80;;;;;;;6.77;64.12;98051.77;251487;1134;114305;-66
2020/12/04 23:06:29;;;;;;;31.80;17.87;;;;;;;6.82;63.97;98047.86;251451;1137;115174;-66
2020/12/04 23:11:33;;;;;;;31.80;18.57;;;;;;;6.91;64.49;98035.87;251624;1135;114426;-67
2020/12/04 23:16:36;;;;;;;30.32;17.90;;;;;;;6.94;64.48;98032.19;251488;1138;114989;-67
2020/12/04 23:21:39;;;;;;;35.55;18.82;;;;;;;6.92;64.54;98042.00;251560;1135;115232;-66
2020/12/04 23:26:41;;;;;;;31.57;18.15;;;;;;;6.84;64.23;98035.41;251493;1135;115595;-66
2020/12/04 23:31:44;;;;;;;27.50;17.37;;;;;;;6.85;64.98;98037.09;251531;1135;115155;-66
2020/12/04 23:36:46;;;;;;;26.17;16.13;;;;;;;6.88;63.95;98050.13;251516;1135;114810;-66
2020/12/04 23:41:51;;;;;;;28.15;16.60;;;;;;;7.00;65.02;98045.03;251865;1135;114723;-66
2020/12/04 23:46:54;;;;;;;;;;;;;;;7.04;64.15;98039.44;251642;1135;114756;-65
2020/12/04 23:51:56;;;;;;;26.10;15.13;;;;;;;7.06;64.64;98034.03;251662;1135;102767;-65
2020/12/04 23:56:58;;;;;;;22.30;13.73;;;;;;;7.12;64.37;98033.64;251711;1142;114713;-65
